Terminal Aerodrome Forecast
Issued by NWS Boston, MA

Home | Current Version | Previous Version | Text Only | Print | Product List | Glossary On
Versions: 1 2 3 4 5 6 7 8 9 10 11 12 13 14 15 16 17 18 19 20 21 22 23 24 25 26 27 28 29 30 31 32 33 34 35 36 37 38 39 40 41 42 43 44 45 46 47 48 49 50
000
FTUS41 KBOX 231120
TAFBOS
TAF
KBOS 231120Z 2312/2418 23010KT P6SM SCT250
     FM231400 22011KT P6SM SCT050
     FM232200 22013KT P6SM BKN050
     FM240300 24008KT 3SM -SHRA OVC060
     FM240700 26006KT 1SM -SHRA BR OVC060
     FM241000 32006KT 1SM -SHRA BR OVC025
     FM241200 36007KT 3SM BR OVC025
     FM241500 02007KT 3SM BR BKN015=

USA.gov is the U.S. government's official web portal to all federal, state and local government web resources and services.